Time;durP1;ratioP1;P1;durP2;ratioP2;P2;SDS_P1;SDS_P2;PMS_P1;PMS_P2;Temp;Humidity;BMP_temperature;BMP_pressure;BME280_temperature;BME280_humidity;BME280_pressure;Samples;Min_cycle;Max_cycle;Signal;HPM_P1;HPM_P2
2021/06/30 00:01:00;;;;;;;7.15;5.22;;;;;;;27.20;47.92;99312.56;5030108;28;20398;-75
2021/06/30 00:03:26;;;;;;;6.30;5.00;;;;;;;27.05;47.88;99293.81;5031366;28;20532;-76
2021/06/30 00:05:51;;;;;;;7.05;5.43;;;;;;;27.38;47.92;99343.50;5031231;28;20021;-75
2021/06/30 00:08:17;;;;;;;9.90;5.45;;;;;;;26.91;47.90;99262.00;5031243;28;20445;-75
2021/06/30 00:10:42;;;;;;;5.60;5.10;;;;;;;27.01;48.02;99296.31;5031355;28;20052;-75
2021/06/30 00:13:10;;;;;;;7.00;5.28;;;;;;;26.96;48.12;99290.94;5031549;28;20044;-75
2021/06/30 00:15:37;;;;;;;6.68;5.13;;;;;;;27.15;47.95;99321.59;5030145;28;20029;-75
2021/06/30 00:18:03;;;;;;;5.75;5.25;;;;;;;27.15;48.19;99332.44;5031437;28;20057;-75
2021/06/30 00:20:29;;;;;;;8.23;5.53;;;;;;;27.09;48.40;99330.06;5031268;28;20064;-75
2021/06/30 00:22:55;;;;;;;5.18;4.68;;;;;;;27.06;48.50;99325.25;5031102;28;20114;-75
2021/06/30 00:25:21;;;;;;;7.75;5.15;;;;;;;27.08;48.41;99331.97;5031362;28;20036;-75
2021/06/30 00:27:48;;;;;;;8.15;5.60;;;;;;;27.08;48.53;99331.97;5031196;28;20060;-74
2021/06/30 00:30:15;;;;;;;7.30;5.38;;;;;;;27.06;48.42;99342.31;5031491;28;20172;-75
2021/06/30 00:32:40;;;;;;;6.20;5.25;;;;;;;26.64;48.43;99310.53;5030069;28;20025;-77
2021/06/30 00:35:06;;;;;;;6.03;5.22;;;;;;;26.57;48.45;99294.63;5031521;28;20044;-76
2021/06/30 00:37:32;;;;;;;7.18;5.68;;;;;;;26.75;48.78;99306.59;5031298;28;20053;-76
2021/06/30 00:39:57;;;;;;;7.78;5.78;;;;;;;26.84;48.46;99323.06;5030953;28;20018;-77
2021/06/30 00:42:22;;;;;;;6.50;5.70;;;;;;;26.87;48.51;99331.41;5029689;28;20058;-76
2021/06/30 00:44:48;;;;;;;7.00;5.53;;;;;;;26.53;48.32;99282.78;5031288;28;20037;-76
2021/06/30 00:47:14;;;;;;;5.93;5.05;;;;;;;26.72;48.36;99318.03;5031261;28;20104;-76
2021/06/30 00:49:39;;;;;;;6.95;5.57;;;;;;;26.68;48.50;99324.31;5029835;28;20029;-76
2021/06/30 00:52:05;;;;;;;8.70;5.30;;;;;;;26.56;48.66;99314.69;5029746;28;20421;-76
2021/06/30 00:54:30;;;;;;;5.80;4.90;;;;;;;26.41;48.44;99290.50;5031124;28;20025;-75
2021/06/30 00:56:56;;;;;;;8.35;5.25;;;;;;;26.84;48.51;99353.66;5030935;28;20025;-76
2021/06/30 00:59:22;;;;;;;9.15;6.13;;;;;;;26.48;48.29;99293.66;5031150;28;20079;-76
2021/06/30 01:01:48;;;;;;;9.32;5.63;;;;;;;26.90;48.52;99355.22;5030949;28;20025;-76
2021/06/30 01:04:13;;;;;;;8.05;5.43;;;;;;;26.56;48.44;99297.63;5029509;28;20033;-76
2021/06/30 01:06:38;;;;;;;8.45;6.15;;;;;;;26.92;48.34;99365.75;5030774;28;20112;-76
2021/06/30 01:09:06;;;;;;;10.18;5.18;;;;;;;26.89;48.42;99369.84;5030770;28;20021;-77
2021/06/30 01:11:32;;;;;;;5.43;4.53;;;;;;;26.60;48.44;99329.28;5030981;28;20083;-75
2021/06/30 01:13:57;;;;;;;7.47;5.45;;;;;;;26.70;48.55;99350.00;5029225;28;20025;-77
2021/06/30 01:16:23;;;;;;;7.80;5.20;;;;;;;26.88;48.51;99378.28;5030595;28;20478;-75
2021/06/30 01:18:48;;;;;;;8.77;5.30;;;;;;;26.35;48.37;99291.66;5030294;28;20549;-77
2021/06/30 01:21:15;;;;;;;7.25;5.00;;;;;;;26.83;48.24;99389.16;5034029;28;20628;-74
2021/06/30 01:23:42;;;;;;;7.82;5.68;;;;;;;26.43;48.28;99325.41;5032694;28;20068;-77
2021/06/30 01:26:08;;;;;;;7.57;5.60;;;;;;;26.76;48.67;99381.38;5033998;28;20033;-76
2021/06/30 01:28:34;;;;;;;8.02;5.05;;;;;;;26.42;48.50;99321.91;5032787;28;20026;-77
2021/06/30 01:31:02;;;;;;;8.32;5.53;;;;;;;26.72;48.29;99374.09;5034256;28;20486;-76
2021/06/30 01:33:27;;;;;;;9.20;6.22;;;;;;;26.39;48.51;99329.78;5034641;28;20021;-76
2021/06/30 01:35:53;;;;;;;10.30;5.10;;;;;;;26.70;48.57;99382.50;5033667;28;20044;-76
2021/06/30 01:38:24;;;;;;;9.63;5.25;;;;;;;26.69;48.62;99390.94;5033889;28;20036;-77
2021/06/30 01:40:50;;;;;;;8.70;5.28;;;;;;;26.30;48.38;99340.41;5033948;28;20449;-76
2021/06/30 01:43:16;;;;;;;6.70;5.07;;;;;;;26.30;48.63;99340.41;5032518;28;20461;-76
2021/06/30 01:45:41;;;;;;;7.88;5.40;;;;;;;26.63;48.70;99392.88;5033918;28;20029;-77
2021/06/30 01:48:07;;;;;;;9.45;5.72;;;;;;;26.43;48.70;99364.13;5033811;28;20034;-76
2021/06/30 01:50:32;;;;;;;8.02;5.45;;;;;;;26.60;48.83;99388.84;5033636;28;20482;-76
2021/06/30 01:52:58;;;;;;;8.77;5.38;;;;;;;26.58;48.94;99396.44;5033860;28;20501;-77
2021/06/30 01:55:24;;;;;;;7.50;5.53;;;;;;;26.25;48.67;99345.88;5033683;28;20422;-75
2021/06/30 01:57:50;;;;;;;6.28;5.25;;;;;;;26.52;48.79;99403.00;5033769;28;20028;-77
2021/06/30 02:00:18;;;;;;;7.65;5.47;;;;;;;26.48;48.89;99407.38;5033393;28;20391;-75
2021/06/30 02:02:45;;;;;;;6.78;5.07;;;;;;;26.27;48.90;99357.22;5033541;28;20105;-77
2021/06/30 02:05:12;;;;;;;9.48;5.63;;;;;;;26.49;48.97;99403.59;5033354;28;20037;-76
2021/06/30 02:07:39;;;;;;;6.25;5.65;;;;;;;26.51;48.82;99400.59;5033584;28;20104;-77
2021/06/30 02:10:09;;;;;;;7.20;5.50;;;;;;;26.31;49.07;99398.84;5033479;28;20490;-76
2021/06/30 02:12:37;;;;;;;8.23;5.60;;;;;;;26.28;49.25;99384.00;5033488;28;20029;-77
2021/06/30 02:15:06;;;;;;;7.20;5.90;;;;;;;26.38;48.89;99399.34;5033153;28;20506;-76
2021/06/30 02:17:32;;;;;;;6.72;5.32;;;;;;;26.12;48.99;99363.56;5033151;28;20021;-76
2021/06/30 02:19:57;;;;;;;6.75;5.35;;;;;;;26.13;48.98;99358.97;5033272;28;20029;-77
2021/06/30 02:22:23;;;;;;;6.75;5.53;;;;;;;26.18;48.92;99377.88;5033162;28;20104;-76
2021/06/30 02:24:48;;;;;;;7.75;5.45;;;;;;;26.06;49.26;99364.72;5033150;28;20399;-76
2021/06/30 02:27:14;;;;;;;8.82;5.03;;;;;;;26.46;49.03;99416.88;5031639;28;20044;-77
2021/06/30 02:29:40;;;;;;;10.40;5.43;;;;;;;26.51;49.02;99431.19;5032514;28;20033;-76
2021/06/30 02:32:06;;;;;;;8.20;5.35;;;;;;;26.05;49.15;99359.59;5033020;28;20026;-77
2021/06/30 02:34:31;;;;;;;8.48;5.13;;;;;;;26.24;48.89;99395.69;5032773;28;20405;-76
2021/06/30 02:36:57;;;;;;;8.73;5.75;;;;;;;26.39;49.39;99457.81;5032876;28;20486;-76
2021/06/30 02:39:22;;;;;;;10.15;5.75;;;;;;;26.33;49.18;99442.72;5031552;28;20029;-76
2021/06/30 02:41:47;;;;;;;11.05;5.80;;;;;;;26.05;49.22;99403.69;5033089;28;20068;-76
2021/06/30 02:44:13;;;;;;;7.35;5.78;;;;;;;26.30;49.17;99445.97;5032660;28;20409;-76
2021/06/30 02:46:38;;;;;;;8.65;5.28;;;;;;;26.16;49.50;99417.94;5032700;28;20799;-77
2021/06/30 02:49:04;;;;;;;7.13;5.35;;;;;;;26.29;49.45;99434.34;5032811;28;20026;-76
2021/06/30 02:51:29;;;;;;;7.30;5.65;;;;;;;26.19;49.26;99426.28;5032543;28;20486;-76
2021/06/30 02:53:55;;;;;;;8.68;6.15;;;;;;;25.94;49.46;99386.69;5032518;28;20500;-77
2021/06/30 02:56:21;;;;;;;7.65;5.32;;;;;;;25.93;49.43;99387.78;5032648;28;20068;-75
2021/06/30 02:58:48;;;;;;;7.40;5.65;;;;;;;25.82;49.33;99366.50;5032516;28;20064;-75
2021/06/30 03:01:14;;;;;;;7.65;5.70;;;;;;;26.27;49.64;99450.03;5032279;28;20036;-75
2021/06/30 03:03:39;;;;;;;10.02;5.43;;;;;;;26.26;49.65;99453.03;5030821;28;20025;-75
2021/06/30 03:06:04;;;;;;;6.85;5.78;;;;;;;26.03;49.66;99422.09;5032794;28;20029;-76
2021/06/30 03:08:30;;;;;;;8.35;5.47;;;;;;;25.87;49.62;99402.44;5032518;28;20025;-76
2021/06/30 03:10:55;;;;;;;10.05;5.85;;;;;;;25.91;49.66;99399.97;5032248;28;20025;-76
2021/06/30 03:13:21;;;;;;;9.30;5.80;;;;;;;25.97;49.84;99423.19;5032103;28;20026;-75
2021/06/30 03:15:48;;;;;;;7.45;5.55;;;;;;;26.15;49.59;99448.78;5032564;28;20028;-76
2021/06/30 03:18:13;;;;;;;7.85;5.65;;;;;;;25.84;49.58;99400.28;5032534;28;20067;-77
2021/06/30 03:20:39;;;;;;;10.30;6.10;;;;;;;25.93;50.17;99422.94;5032218;28;20021;-76
2021/06/30 03:23:04;;;;;;;7.65;5.72;;;;;;;26.06;50.06;99454.00;5032148;28;20033;-76
2021/06/30 03:25:29;;;;;;;11.05;6.35;;;;;;;25.89;50.13;99430.00;5031843;28;20167;-76
2021/06/30 03:27:55;;;;;;;9.30;6.03;;;;;;;25.74;50.17;99413.09;5031686;28;20132;-76
2021/06/30 03:30:20;;;;;;;6.60;5.85;;;;;;;25.74;50.21;99402.28;5031962;28;20108;-76
2021/06/30 03:32:45;;;;;;;8.20;6.18;;;;;;;26.04;50.24;99444.56;5032151;28;20104;-76
2021/06/30 03:35:11;;;;;;;7.57;6.13;;;;;;;25.79;50.39;99427.38;5032001;28;20013;-76
2021/06/30 03:37:36;;;;;;;10.65;5.88;;;;;;;25.59;50.51;99390.44;5031923;28;20465;-77
2021/06/30 03:40:03;;;;;;;7.78;6.10;;;;;;;25.94;50.38;99445.41;5031684;28;20536;-76
2021/06/30 03:42:29;;;;;;;7.47;5.63;;;;;;;25.48;50.46;99371.84;5030822;28;20053;-76
2021/06/30 03:44:54;;;;;;;10.52;6.03;;;;;;;25.86;50.62;99449.50;5031780;28;20044;-76
2021/06/30 03:47:20;;;;;;;16.52;6.25;;;;;;;25.95;50.68;99445.13;5031793;28;20117;-76
2021/06/30 03:49:45;;;;;;;9.13;6.07;;;;;;;25.80;50.85;99420.88;5031655;28;20026;-76
2021/06/30 03:52:11;;;;;;;8.65;6.25;;;;;;;25.60;50.75;99392.03;5031684;28;20036;-76
2021/06/30 03:54:36;;;;;;;11.65;7.30;;;;;;;25.56;50.73;99396.41;5031724;28;20022;-76
2021/06/30 03:57:02;;;;;;;8.18;6.53;;;;;;;25.50;51.02;99388.59;5030114;28;20025;-77
2021/06/30 03:59:27;;;;;;;8.32;6.38;;;;;;;25.79;50.91;99421.97;5031884;28;20040;-76
2021/06/30 04:01:53;;;;;;;8.30;6.32;;;;;;;25.97;51.03;99453.75;5031627;28;20029;-76
2021/06/30 04:04:19;;;;;;;9.93;6.50;;;;;;;26.04;50.82;99449.97;5030041;28;20075;-76
2021/06/30 04:06:45;;;;;;;8.77;6.72;;;;;;;26.05;51.13;99446.16;5031476;28;20462;-76
2021/06/30 04:09:10;;;;;;;9.82;6.97;;;;;;;25.75;51.04;99399.28;5030055;28;20478;-76
2021/06/30 04:11:36;;;;;;;10.30;7.05;;;;;;;25.93;50.76;99422.16;5031282;28;20056;-76
2021/06/30 04:14:02;;;;;;;7.82;6.88;;;;;;;25.77;50.98;99399.81;5031399;28;20026;-76
2021/06/30 04:16:27;;;;;;;9.73;6.70;;;;;;;26.16;51.21;99458.53;5030224;28;20422;-76
2021/06/30 04:18:53;;;;;;;9.00;6.90;;;;;;;26.17;51.32;99460.16;5031523;28;20120;-76
2021/06/30 04:21:18;;;;;;;11.45;7.65;;;;;;;26.18;51.29;99451.75;5031126;28;20112;-77
2021/06/30 04:23:43;;;;;;;9.50;7.22;;;;;;;25.81;51.47;99387.34;5030045;28;20022;-76
2021/06/30 04:26:09;;;;;;;8.10;6.88;;;;;;;25.69;50.95;99356.34;5031307;28;20105;-76
2021/06/30 04:28:34;;;;;;;7.35;6.07;;;;;;;26.11;51.05;99420.69;5031282;28;20056;-76
2021/06/30 04:31:00;;;;;;;8.45;7.13;;;;;;;26.05;51.33;99405.59;5031366;28;20033;-77
2021/06/30 04:33:26;;;;;;;11.80;7.07;;;;;;;26.17;51.27;99419.56;5030058;28;20021;-77
2021/06/30 04:35:51;;;;;;;10.23;7.80;;;;;;;26.06;51.45;99418.81;5031209;28;20030;-76
2021/06/30 04:38:18;;;;;;;10.30;7.47;;;;;;;25.97;51.44;99399.66;5031239;28;20030;-76
2021/06/30 04:40:45;;;;;;;9.35;7.32;;;;;;;26.03;51.85;99400.44;5030711;28;20061;-77
2021/06/30 04:43:10;;;;;;;9.23;7.85;;;;;;;26.35;51.79;99447.84;5029725;28;20022;-76
2021/06/30 04:45:35;;;;;;;9.63;8.63;;;;;;;26.20;51.75;99433.31;5031204;28;20028;-76
2021/06/30 04:48:01;;;;;;;13.00;8.38;;;;;;;25.67;51.85;99348.50;5031062;28;20026;-76
2021/06/30 04:50:26;;;;;;;11.82;8.55;;;;;;;26.25;52.00;99432.47;5031177;28;20024;-75
2021/06/30 04:52:52;;;;;;;9.52;8.52;;;;;;;26.37;51.91;99438.34;5032406;28;20059;-75
2021/06/30 04:55:17;;;;;;;10.80;8.60;;;;;;;26.11;52.00;99396.34;5033600;28;20026;-77
2021/06/30 04:57:43;;;;;;;16.63;9.68;;;;;;;26.14;52.00;99395.75;5034992;28;20083;-75
2021/06/30 05:00:10;;;;;;;9.77;8.60;;;;;;;26.42;52.13;99434.78;5035247;28;20520;-77
2021/06/30 05:02:35;;;;;;;12.77;9.10;;;;;;;26.34;52.24;99433.50;5034713;28;20029;-78
2021/06/30 05:05:02;;;;;;;13.80;9.77;;;;;;;26.39;52.21;99429.94;5033216;28;20032;-75
2021/06/30 05:07:27;;;;;;;12.55;9.73;;;;;;;26.27;52.01;99414.06;5034644;28;20525;-76
2021/06/30 05:09:53;;;;;;;12.75;9.48;;;;;;;26.46;52.06;99436.66;5033276;28;20065;-77
2021/06/30 05:12:18;;;;;;;15.23;10.38;;;;;;;26.59;52.27;99457.63;5034363;28;20026;-76
2021/06/30 05:14:44;;;;;;;11.23;9.23;;;;;;;26.38;52.13;99412.09;5034444;28;20052;-76
2021/06/30 05:17:09;;;;;;;12.35;9.57;;;;;;;26.77;52.49;99468.88;5034310;28;20033;-76
2021/06/30 05:19:35;;;;;;;13.85;10.85;;;;;;;26.66;52.47;99441.06;5034081;28;20144;-75
2021/06/30 05:22:01;;;;;;;15.32;11.65;;;;;;;26.28;52.52;99378.59;5034271;28;20029;-77
2021/06/30 05:24:27;;;;;;;16.90;10.75;;;;;;;26.72;52.58;99439.09;5034236;28;20026;-76
2021/06/30 05:26:52;;;;;;;13.73;10.68;;;;;;;27.00;52.21;99461.91;5034328;28;20048;-76
2021/06/30 05:29:18;;;;;;;12.57;11.15;;;;;;;27.01;52.39;99468.94;5032961;28;20191;-75
2021/06/30 05:31:43;;;;;;;15.60;13.95;;;;;;;26.70;52.25;99416.91;5034341;28;20422;-76
2021/06/30 05:34:08;;;;;;;12.88;11.68;;;;;;;27.12;52.47;99465.81;5050446;28;20025;-76
2021/06/30 05:36:34;;;;;;;13.95;10.57;;;;;;;27.16;52.64;99466.03;5050806;28;20028;-76
2021/06/30 05:38:59;;;;;;;12.45;11.23;;;;;;;27.20;52.66;99467.88;5050457;28;20057;-75
2021/06/30 05:41:25;;;;;;;13.93;11.52;;;;;;;27.17;52.54;99451.41;5051493;28;20048;-76
2021/06/30 05:43:51;;;;;;;12.38;11.07;;;;;;;27.28;52.45;99468.34;5051361;28;20029;-77
2021/06/30 05:46:18;;;;;;;20.10;11.77;;;;;;;27.30;52.35;99477.81;5040250;28;20033;-76
2021/06/30 05:48:43;;;;;;;16.38;11.38;;;;;;;27.33;52.28;99479.13;5031905;28;20029;-77
2021/06/30 05:51:10;;;;;;;13.60;11.57;;;;;;;26.96;52.41;99412.06;5037953;28;20040;-78
2021/06/30 05:53:36;;;;;;;14.60;11.40;;;;;;;26.89;51.86;99401.56;5045243;28;20021;-75
2021/06/30 05:56:01;;;;;;;16.05;13.85;;;;;;;27.43;52.08;99476.28;5051973;28;20028;-77
2021/06/30 05:58:27;;;;;;;15.85;13.93;;;;;;;27.43;52.09;99477.09;5046601;28;20123;-76
2021/06/30 06:00:52;;;;;;;15.77;14.23;;;;;;;27.47;52.36;99475.41;5036056;28;20513;-76
2021/06/30 06:03:18;;;;;;;20.00;16.60;;;;;;;27.14;52.41;99422.16;5054316;28;20044;-76
2021/06/30 06:05:43;;;;;;;17.35;15.32;;;;;;;27.16;52.39;99417.25;5059523;28;20033;-77
2021/06/30 06:08:08;;;;;;;16.77;15.00;;;;;;;27.26;52.29;99425.25;5065636;28;20107;-76
2021/06/30 06:10:34;;;;;;;17.10;15.27;;;;;;;27.35;51.76;99425.41;5035443;28;20520;-76
2021/06/30 06:12:59;;;;;;;17.08;14.43;;;;;;;27.20;51.60;99402.84;5033267;28;20112;-76
2021/06/30 06:15:25;;;;;;;15.48;14.02;;;;;;;27.67;51.25;99484.44;5033419;28;20026;-76
2021/06/30 06:17:50;;;;;;;20.23;13.50;;;;;;;27.59;51.04;99457.94;5048275;28;20120;-73
2021/06/30 06:20:16;;;;;;;14.73;13.27;;;;;;;27.63;51.09;99459.81;5039504;28;20036;-77
2021/06/30 06:22:41;;;;;;;18.67;16.60;;;;;;;27.52;50.80;99433.88;5033126;28;20030;-75
2021/06/30 06:25:08;;;;;;;17.98;16.20;;;;;;;27.42;51.00;99399.56;5034819;28;20039;-76
2021/06/30 06:27:34;;;;;;;19.58;17.88;;;;;;;27.98;51.21;99469.34;5041434;28;20032;-75
2021/06/30 06:29:59;;;;;;;18.85;16.13;;;;;;;27.67;50.81;99409.28;5047282;28;20036;-75
2021/06/30 06:32:25;;;;;;;19.50;17.48;;;;;;;28.11;50.73;99467.78;5031449;28;20040;-75
2021/06/30 06:34:51;;;;;;;15.63;13.98;;;;;;;28.09;50.60;99451.00;5032800;28;20075;-76
2021/06/30 06:37:18;;;;;;;15.68;12.88;;;;;;;28.23;49.64;99464.63;5034215;28;20033;-74
2021/06/30 06:39:44;;;;;;;13.38;12.07;;;;;;;28.20;49.62;99462.50;5044135;28;20049;-73
2021/06/30 06:42:12;;;;;;;17.85;13.82;;;;;;;27.90;49.38;99425.78;5052718;28;20052;-74
2021/06/30 06:44:39;;;;;;;13.90;12.25;;;;;;;27.96;49.01;99408.31;5044309;28;20037;-73
2021/06/30 06:47:04;;;;;;;14.85;13.30;;;;;;;28.27;48.69;99455.63;5039799;28;20025;-76
2021/06/30 06:49:30;;;;;;;19.75;14.07;;;;;;;28.02;49.04;99409.84;5034573;28;20505;-77
2021/06/30 06:51:55;;;;;;;13.57;12.27;;;;;;;28.35;48.81;99448.72;5035883;28;20420;-75
2021/06/30 06:54:20;;;;;;;13.35;12.13;;;;;;;27.96;48.66;99392.03;5033457;28;20025;-75
2021/06/30 06:56:46;;;;;;;13.77;12.35;;;;;;;27.93;48.55;99362.78;5037340;28;20036;-75
2021/06/30 06:59:11;;;;;;;13.65;12.38;;;;;;;28.47;48.36;99428.13;5042996;28;20021;-76
2021/06/30 07:01:37;;;;;;;13.57;12.07;;;;;;;28.21;48.52;99394.31;5046153;28;20035;-75
2021/06/30 07:04:03;;;;;;;13.00;11.85;;;;;;;28.32;48.03;99393.09;5039122;28;20025;-77
2021/06/30 07:06:28;;;;;;;12.55;11.25;;;;;;;28.33;48.10;99374.91;5052088;28;20054;-77
2021/06/30 07:08:54;;;;;;;12.73;11.55;;;;;;;28.37;47.80;99363.13;5041661;28;20047;-75
2021/06/30 07:11:20;;;;;;;12.23;11.13;;;;;;;27.70;47.29;99250.56;5034596;28;20029;-76
2021/06/30 07:13:47;;;;;;;12.57;11.38;;;;;;;29.10;47.25;99449.28;5034500;28;20028;-75
2021/06/30 07:16:13;;;;;;;12.70;11.40;;;;;;;28.99;46.85;99403.56;5041289;28;20039;-75
2021/06/30 07:18:38;;;;;;;13.45;12.25;;;;;;;28.87;46.88;99382.31;5031577;28;20025;-78
2021/06/30 07:21:05;;;;;;;12.88;11.75;;;;;;;29.37;46.60;99429.41;5039192;28;20523;-77
2021/06/30 07:23:31;;;;;;;15.25;13.05;;;;;;;29.45;46.35;99432.56;5041317;28;20497;-77
2021/06/30 07:25:57;;;;;;;12.80;11.68;;;;;;;29.14;46.27;99381.50;5043182;28;20032;-75
2021/06/30 07:28:23;;;;;;;14.68;13.27;;;;;;;29.22;46.36;99383.50;5044300;28;20035;-77
2021/06/30 07:30:49;;;;;;;14.20;12.95;;;;;;;29.56;46.73;99432.03;5031630;28;20469;-76
2021/06/30 07:33:14;;;;;;;14.52;13.07;;;;;;;29.54;46.32;99409.75;5038371;28;20053;-76
2021/06/30 07:35:40;;;;;;;13.35;11.98;;;;;;;29.73;46.51;99429.47;5041078;28;20021;-78
2021/06/30 07:38:06;;;;;;;13.63;12.27;;;;;;;29.30;46.27;99365.66;5036024;28;20465;-78
2021/06/30 07:40:32;;;;;;;15.00;13.50;;;;;;;29.92;46.02;99431.22;5047695;28;20060;-78
2021/06/30 07:42:58;;;;;;;14.52;13.13;;;;;;;29.73;46.03;99396.81;5050186;28;20021;-75
2021/06/30 07:45:25;;;;;;;14.38;13.07;;;;;;;30.02;46.03;99431.03;5035028;28;20076;-74
2021/06/30 07:47:51;;;;;;;14.25;12.85;;;;;;;30.00;45.82;99431.31;5036875;28;20482;-73
2021/06/30 07:50:17;;;;;;;13.30;12.10;;;;;;;29.56;46.09;99358.56;5036516;28;20036;-76
2021/06/30 07:52:45;;;;;;;13.40;12.10;;;;;;;29.77;45.90;99377.97;5031776;28;20029;-77
2021/06/30 07:55:11;;;;;;;12.70;11.38;;;;;;;30.14;45.64;99414.13;5037076;28;20120;-76
2021/06/30 07:57:37;;;;;;;14.15;12.70;;;;;;;29.55;45.58;99331.66;5041021;28;20458;-77
2021/06/30 08:00:03;;;;;;;13.10;12.00;;;;;;;30.42;45.51;99414.78;5038585;28;20029;-76
2021/06/30 08:02:29;;;;;;;13.60;12.20;;;;;;;30.17;45.23;99373.47;5038748;28;20060;-76
2021/06/30 08:04:55;;;;;;;14.65;13.25;;;;;;;30.44;45.37;99416.06;5034748;28;20061;-76
2021/06/30 08:07:22;;;;;;;17.27;15.80;;;;;;;30.47;45.10;99401.84;5035954;28;20024;-77
2021/06/30 08:09:47;;;;;;;14.07;12.75;;;;;;;30.49;44.82;99377.00;5049585;28;20106;-75
2021/06/30 08:12:13;;;;;;;14.32;13.02;;;;;;;30.54;44.55;99369.50;5037330;28;20502;-76
2021/06/30 08:14:38;;;;;;;14.45;12.88;;;;;;;30.88;43.95;99406.22;5033514;28;20026;-76
2021/06/30 08:17:04;;;;;;;13.88;12.68;;;;;;;30.94;44.28;99405.75;5030516;28;20091;-75
2021/06/30 08:19:30;;;;;;;15.23;13.43;;;;;;;30.76;44.27;99370.56;5032842;28;20033;-77
2021/06/30 08:21:55;;;;;;;15.88;13.00;;;;;;;30.94;43.78;99383.94;5035933;28;20029;-76
2021/06/30 08:24:21;;;;;;;14.18;12.80;;;;;;;30.76;43.83;99362.41;5044502;28;20057;-77
2021/06/30 08:26:46;;;;;;;13.85;12.55;;;;;;;31.26;43.64;99410.06;5032614;28;20482;-77
2021/06/30 08:29:12;;;;;;;15.50;14.00;;;;;;;31.11;43.29;99371.47;5032844;28;20043;-75
2021/06/30 08:31:38;;;;;;;15.45;13.88;;;;;;;31.23;43.36;99368.97;5046904;28;20546;-75
2021/06/30 08:34:03;;;;;;;14.68;13.20;;;;;;;31.12;42.94;99338.44;5066705;28;20028;-75
2021/06/30 08:36:29;;;;;;;18.60;13.00;;;;;;;31.43;43.01;99359.38;5046647;28;20112;-75
2021/06/30 08:38:54;;;;;;;14.98;13.13;;;;;;;31.46;42.37;99351.34;5052500;28;20071;-77
2021/06/30 08:41:21;;;;;;;15.30;13.90;;;;;;;31.80;42.13;99379.78;5051760;28;20042;-75
2021/06/30 08:43:46;;;;;;;16.40;14.95;;;;;;;31.74;42.21;99361.97;5035734;28;20051;-77
2021/06/30 08:46:17;;;;;;;14.77;13.38;;;;;;;31.63;41.57;99323.25;5053281;28;20455;-76
2021/06/30 08:48:43;;;;;;;;;;;;;;;32.05;42.02;99392.63;5052806;28;20079;-75
2021/06/30 08:51:11;;;;;;;15.70;14.10;;;;;;;31.76;41.60;99340.59;5045011;28;19921;-77
2021/06/30 08:53:40;;;;;;;14.40;13.15;;;;;;;32.21;41.06;99398.38;5037685;28;20021;-78
2021/06/30 08:56:08;;;;;;;16.77;15.15;;;;;;;32.01;41.37;99349.91;5049447;28;20028;-76
2021/06/30 08:58:34;;;;;;;15.45;14.05;;;;;;;32.41;40.90;99392.25;5055728;28;20106;-75
2021/06/30 09:00:59;;;;;;;15.73;14.32;;;;;;;32.47;41.07;99379.22;5041025;28;20409;-76
2021/06/30 09:03:25;;;;;;;18.95;13.95;;;;;;;32.20;40.72;99334.75;5039416;28;20044;-76
2021/06/30 09:08:21;;;;;;;17.50;15.70;;;;;;;32.69;40.51;99376.22;5033847;28;20025;-75
2021/06/30 09:10:47;;;;;;;23.02;19.05;;;;;;;32.55;40.23;99334.63;5043847;28;20509;-76
2021/06/30 09:13:23;;;;;;;14.70;13.32;;;;;;;32.99;40.03;99370.81;5034007;28;20018;-75
2021/06/30 09:15:59;;;;;;;14.43;13.00;;;;;;;32.73;40.00;99297.91;5037841;28;20053;-75
2021/06/30 09:18:32;;;;;;;13.77;12.55;;;;;;;33.13;39.56;99346.75;5033818;28;20021;-78
2021/06/30 09:21:16;;;;;;;37.38;24.13;;;;;;;33.41;40.17;99363.47;5040552;28;20068;-76
2021/06/30 09:24:08;;;;;;;39.08;26.30;;;;;;;33.15;39.70;99284.28;5039140;28;20029;-77
2021/06/30 09:26:37;;;;;;;18.50;16.55;;;;;;;33.54;39.21;99328.78;5042725;28;20071;-77
2021/06/30 09:29:04;;;;;;;15.75;12.68;;;;;;;33.93;38.03;99355.66;5035890;28;20056;-78
2021/06/30 09:31:30;;;;;;;14.10;11.38;;;;;;;34.02;37.41;99361.84;5034035;28;20026;-75
2021/06/30 09:33:59;;;;;;;13.05;11.55;;;;;;;33.64;37.19;99276.34;5044817;28;20563;-76
2021/06/30 09:36:32;;;;;;;17.30;15.60;;;;;;;34.27;37.51;99348.22;5043090;28;20556;-77
2021/06/30 09:39:08;;;;;;;12.20;11.00;;;;;;;34.37;36.68;99323.94;5047532;28;20112;-76
2021/06/30 09:41:34;;;;;;;15.63;14.02;;;;;;;34.37;36.69;99303.97;5044173;28;20071;-77
2021/06/30 09:44:23;;;;;;;15.45;13.77;;;;;;;34.81;36.69;99331.59;5035758;28;20112;-75
2021/06/30 09:46:52;;;;;;;13.38;11.32;;;;;;;34.64;36.40;99284.06;5035740;28;20045;-76
2021/06/30 09:49:20;;;;;;;12.95;11.48;;;;;;;35.01;36.17;99306.81;5045209;28;20021;-77
2021/06/30 09:51:47;;;;;;;15.18;11.65;;;;;;;35.16;35.77;99320.97;5042918;28;20025;-76
2021/06/30 09:54:15;;;;;;;14.20;11.20;;;;;;;35.33;35.48;99324.25;5045262;28;20050;-76
2021/06/30 09:57:08;;;;;;;11.13;10.02;;;;;;;35.49;34.73;99316.09;5059755;28;20603;-77
2021/06/30 09:59:37;;;;;;;11.48;10.38;;;;;;;35.65;34.54;99316.91;5033070;28;20033;-77
2021/06/30 10:02:12;;;;;;;11.45;10.35;;;;;;;35.82;34.23;99315.88;5060677;28;20059;-76
2021/06/30 10:04:49;;;;;;;12.15;9.75;;;;;;;35.82;34.04;99302.13;5041218;28;20037;-77
2021/06/30 10:07:16;;;;;;;10.38;9.38;;;;;;;35.95;33.84;99306.41;5039722;28;20033;-76
2021/06/30 10:09:47;;;;;;;9.55;8.52;;;;;;;36.11;34.13;99303.66;5043192;28;20033;-78
2021/06/30 10:12:15;;;;;;;11.20;10.23;;;;;;;36.16;33.87;99273.16;5036946;28;20167;-74
2021/06/30 10:14:43;;;;;;;10.20;9.18;;;;;;;36.50;33.40;99312.13;5056390;28;20562;-75
2021/06/30 10:17:10;;;;;;;10.90;8.90;;;;;;;36.22;33.93;99251.69;5050706;28;20104;-76
2021/06/30 10:19:41;;;;;;;10.70;9.60;;;;;;;36.41;34.30;99273.00;5049062;28;20027;-76
2021/06/30 10:22:08;;;;;;;9.88;8.75;;;;;;;36.60;34.08;99264.84;5057326;28;20028;-75
2021/06/30 10:24:35;;;;;;;10.13;8.93;;;;;;;36.81;33.78;99301.13;5035651;28;20029;-76
2021/06/30 10:27:01;;;;;;;9.15;8.25;;;;;;;36.92;33.81;99288.38;5032562;28;20108;-77
2021/06/30 10:29:31;;;;;;;9.35;8.45;;;;;;;36.92;33.73;99269.13;5041633;28;20033;-76
2021/06/30 10:32:08;;;;;;;;;;;;;;;37.08;33.89;99280.06;5037443;28;20183;-77
2021/06/30 10:34:38;;;;;;;8.80;8.10;;;;;;;37.29;33.35;99284.47;5031540;28;20340;-75
2021/06/30 10:37:20;;;;;;;8.83;8.00;;;;;;;37.34;33.04;99268.47;5050126;28;20029;-77
2021/06/30 10:39:48;;;;;;;8.20;7.50;;;;;;;37.40;33.13;99257.94;5049091;28;20108;-77
2021/06/30 10:42:20;;;;;;;12.15;10.77;;;;;;;37.49;33.01;99272.28;5051454;28;20067;-77
2021/06/30 10:44:54;;;;;;;10.82;9.73;;;;;;;37.66;32.95;99271.84;5052317;28;20029;-75
2021/06/30 10:47:38;;;;;;;10.82;8.98;;;;;;;37.46;32.85;99223.44;5052318;28;20021;-76
2021/06/30 10:50:25;;;;;;;10.93;8.88;;;;;;;38.02;31.62;99267.00;5049989;28;20104;-75
2021/06/30 10:53:03;;;;;;;9.40;8.32;;;;;;;38.09;31.85;99273.44;5039906;28;20025;-76
2021/06/30 10:55:40;;;;;;;12.48;8.80;;;;;;;38.28;31.38;99269.84;5045994;28;20033;-76
2021/06/30 10:58:12;;;;;;;8.93;7.65;;;;;;;38.45;31.30;99255.53;5040815;28;20053;-74
2021/06/30 11:00:38;;;;;;;11.00;7.30;;;;;;;38.39;31.37;99259.75;5050194;28;20025;-74
2021/06/30 11:03:35;;;;;;;8.23;7.40;;;;;;;38.41;31.86;99246.41;5054058;28;20025;-77
2021/06/30 11:06:07;;;;;;;8.68;7.35;;;;;;;38.57;30.84;99250.94;5031778;28;20074;-76
2021/06/30 11:08:50;;;;;;;8.50;7.10;;;;;;;38.73;30.70;99246.13;5032260;28;20522;-76
2021/06/30 11:11:21;;;;;;;7.45;6.68;;;;;;;38.81;30.93;99247.00;5032485;28;20030;-76
2021/06/30 11:14:12;;;;;;;9.68;8.00;;;;;;;38.94;30.41;99234.56;5041033;28;20494;-76
2021/06/30 11:16:43;;;;;;;;;;;;;;;39.05;30.44;99236.31;5062609;28;20048;-75
2021/06/30 11:19:17;;;;;;;8.55;7.10;;;;;;;39.02;30.55;99231.50;5051646;28;19966;-76
2021/06/30 11:22:11;;;;;;;9.65;8.18;;;;;;;38.67;30.21;99157.34;5051470;28;20025;-77
2021/06/30 11:24:41;;;;;;;7.72;6.90;;;;;;;39.32;30.17;99223.22;5049096;28;20094;-81
2021/06/30 11:27:10;;;;;;;11.75;8.52;;;;;;;39.52;29.98;99217.53;5051688;28;20091;-79
2021/06/30 11:32:08;;;;;;;11.45;10.52;;;;;;;39.84;29.46;99204.81;5031876;28;20030;-81